sensor_id;sensor_type;location;lat;lon;timestamp;noise_LAeq;noise_LA_min;noise_LA_max;noise_LA01;noise_LA95
67304;Laerm;57660;51.436;5.978;2023-03-01T00:00:04;46.71;38.64;53.29;;
67304;Laerm;57660;51.436;5.978;2023-03-01T00:00:14;50.43;39.23;63.37;;
67304;Laerm;57660;51.436;5.978;2023-03-01T00:00:25;42.75;38.96;44.65;;
67304;Laerm;57660;51.436;5.978;2023-03-01T00:00:53;69.57;38.66;78.17;;
67304;Laerm;57660;51.436;5.978;2023-03-01T00:01:04;71.83;68.93;76.37;;
67304;Laerm;57660;51.436;5.978;2023-03-01T00:01:22;71.30;41.78;79.52;;
67304;Laerm;57660;51.436;5.978;2023-03-01T00:01:33;38.37;33.61;43.21;;
67304;Laerm;57660;51.436;5.978;2023-03-01T00:01:51;34.26;32.13;37.11;;
67304;Laerm;57660;51.436;5.978;2023-03-01T00:02:01;37.72;32.86;42.56;;
67304;Laerm;57660;51.436;5.978;2023-03-01T00:02:12;32.46;31.05;34.15;;
67304;Laerm;57660;51.436;5.978;2023-03-01T00:02:28;31.67;30.39;33.91;;
67304;Laerm;57660;51.436;5.978;2023-03-01T00:02:38;31.41;30.15;35.43;;
67304;Laerm;57660;51.436;5.978;2023-03-01T00:02:48;31.30;29.88;33.02;;
67304;Laerm;57660;51.436;5.978;2023-03-01T00:03:02;31.14;28.93;32.41;;
67304;Laerm;57660;51.436;5.978;2023-03-01T00:03:13;31.10;29.94;32.17;;
67304;Laerm;57660;51.436;5.978;2023-03-01T00:03:23;31.05;29.81;32.51;;
67304;Laerm;57660;51.436;5.978;2023-03-01T00:03:36;30.99;29.66;31.95;;
67304;Laerm;57660;51.436;5.978;2023-03-01T00:03:47;30.85;29.46;32.29;;
67304;Laerm;57660;51.436;5.978;2023-03-01T00:03:57;30.75;29.64;32.18;;
67304;Laerm;57660;51.436;5.978;2023-03-01T00:04:08;30.94;29.76;32.13;;
67304;Laerm;57660;51.436;5.978;2023-03-01T00:04:18;30.95;29.92;32.02;;
67304;Laerm;57660;51.436;5.978;2023-03-01T00:04:28;30.78;29.54;32.26;;
67304;Laerm;57660;51.436;5.978;2023-03-01T00:04:39;30.87;29.87;32.11;;
67304;Laerm;57660;51.436;5.978;2023-03-01T00:04:49;30.78;29.45;32.08;;
67304;Laerm;57660;51.436;5.978;2023-03-01T00:05:01;30.83;29.69;39.38;;
67304;Laerm;57660;51.436;5.978;2023-03-01T00:05:12;30.76;29.63;31.74;;
67304;Laerm;57660;51.436;5.978;2023-03-01T00:05:22;30.89;29.71;31.88;;
67304;Laerm;57660;51.436;5.978;2023-03-01T00:05:45;30.70;29.63;31.92;;
67304;Laerm;57660;51.436;5.978;2023-03-01T00:05:56;30.80;29.52;41.44;;
67304;Laerm;57660;51.436;5.978;2023-03-01T00:06:06;30.72;29.63;32.41;;
67304;Laerm;57660;51.436;5.978;2023-03-01T00:06:19;30.81;29.80;32.86;;
67304;Laerm;57660;51.436;5.978;2023-03-01T00:06:30;30.98;29.51;32.60;;
67304;Laerm;57660;51.436;5.978;2023-03-01T00:06:42;30.79;29.11;32.49;;
67304;Laerm;57660;51.436;5.978;2023-03-01T00:06:53;30.86;29.72;32.30;;
67304;Laerm;57660;51.436;5.978;2023-03-01T00:07:03;30.87;29.69;32.70;;
67304;Laerm;57660;51.436;5.978;2023-03-01T00:07:13;30.88;29.76;32.67;;
67304;Laerm;57660;51.436;5.978;2023-03-01T00:07:29;30.97;29.53;33.91;;
67304;Laerm;57660;51.436;5.978;2023-03-01T00:07:40;30.91;29.55;33.50;;
67304;Laerm;57660;51.436;5.978;2023-03-01T00:07:52;30.66;29.56;31.86;;
67304;Laerm;57660;51.436;5.978;2023-03-01T00:08:02;30.68;29.55;31.81;;
67304;Laerm;57660;51.436;5.978;2023-03-01T00:08:12;30.61;29.68;32.03;;
67304;Laerm;57660;51.436;5.978;2023-03-01T00:08:23;30.60;29.02;31.73;;
67304;Laerm;57660;51.436;5.978;2023-03-01T00:08:33;30.49;29.52;31.70;;
67304;Laerm;57660;51.436;5.978;2023-03-01T00:08:44;30.48;29.48;31.61;;
67304;Laerm;57660;51.436;5.978;2023-03-01T00:08:57;30.53;29.29;32.41;;
67304;Laerm;57660;51.436;5.978;2023-03-01T00:09:07;30.49;29.36;31.58;;
67304;Laerm;57660;51.436;5.978;2023-03-01T00:09:17;30.66;29.59;37.68;;
67304;Laerm;57660;51.436;5.978;2023-03-01T00:09:27;30.52;29.38;31.47;;
67304;Laerm;57660;51.436;5.978;2023-03-01T00:09:38;30.46;29.55;31.52;;
67304;Laerm;57660;51.436;5.978;2023-03-01T00:09:50;30.58;29.62;31.66;;
67304;Laerm;57660;51.436;5.978;2023-03-01T00:10:03;30.62;29.21;31.90;;
67304;Laerm;57660;51.436;5.978;2023-03-01T00:10:13;30.55;29.47;31.59;;
67304;Laerm;57660;51.436;5.978;2023-03-01T00:10:23;30.62;29.62;32.01;;
67304;Laerm;57660;51.436;5.978;2023-03-01T00:10:34;30.74;29.34;31.92;;
67304;Laerm;57660;51.436;5.978;2023-03-01T00:10:44;30.71;29.66;32.29;;
67304;Laerm;57660;51.436;5.978;2023-03-01T00:11:01;30.49;29.36;31.91;;
67304;Laerm;57660;51.436;5.978;2023-03-01T00:11:25;30.51;29.25;31.62;;
67304;Laerm;57660;51.436;5.978;2023-03-01T00:11:45;30.33;29.17;31.40;;
67304;Laerm;57660;51.436;5.978;2023-03-01T00:11:55;30.36;29.15;31.42;;
67304;Laerm;57660;51.436;5.978;2023-03-01T00:12:14;30.59;29.47;32.62;;
67304;Laerm;57660;51.436;5.978;2023-03-01T00:12:25;30.65;29.60;32.61;;
67304;Laerm;57660;51.436;5.978;2023-03-01T00:12:35;30.68;29.47;32.16;;
67304;Laerm;57660;51.436;5.978;2023-03-01T00:12:48;30.68;29.62;31.95;;
67304;Laerm;57660;51.436;5.978;2023-03-01T00:12:58;30.88;29.76;32.07;;
67304;Laerm;57660;51.436;5.978;2023-03-01T00:13:09;30.78;29.59;32.42;;
67304;Laerm;57660;51.436;5.978;2023-03-01T00:13:25;30.51;29.48;31.70;;
67304;Laerm;57660;51.436;5.978;2023-03-01T00:13:35;30.45;29.33;31.46;;
67304;Laerm;57660;51.436;5.978;2023-03-01T00:13:46;30.58;29.55;31.61;;
67304;Laerm;57660;51.436;5.978;2023-03-01T00:13:58;30.61;29.50;31.74;;
67304;Laerm;57660;51.436;5.978;2023-03-01T00:14:09;30.74;29.66;31.80;;
67304;Laerm;57660;51.436;5.978;2023-03-01T00:14:19;30.63;29.48;31.67;;
67304;Laerm;57660;51.436;5.978;2023-03-01T00:14:29;30.71;29.62;31.80;;
67304;Laerm;57660;51.436;5.978;2023-03-01T00:14:39;30.62;29.75;31.92;;
67304;Laerm;57660;51.436;5.978;2023-03-01T00:14:50;30.58;29.66;31.84;;
67304;Laerm;57660;51.436;5.978;2023-03-01T00:15:00;30.63;29.72;34.74;;
67304;Laerm;57660;51.436;5.978;2023-03-01T00:15:10;30.43;29.28;31.62;;
67304;Laerm;57660;51.436;5.978;2023-03-01T00:15:21;30.39;29.33;31.25;;
67304;Laerm;57660;51.436;5.978;2023-03-01T00:15:32;30.45;29.45;31.43;;
67304;Laerm;57660;51.436;5.978;2023-03-01T00:15:44;30.40;29.13;33.85;;
67304;Laerm;57660;51.436;5.978;2023-03-01T00:15:55;30.51;29.39;31.36;;
67304;Laerm;57660;51.436;5.978;2023-03-01T00:16:06;30.49;29.45;31.63;;
67304;Laerm;57660;51.436;5.978;2023-03-01T00:16:18;30.57;29.55;31.79;;
67304;Laerm;57660;51.436;5.978;2023-03-01T00:16:29;30.70;29.64;32.01;;
67304;Laerm;57660;51.436;5.978;2023-03-01T00:16:41;30.67;29.47;31.70;;
67304;Laerm;57660;51.436;5.978;2023-03-01T00:16:51;30.63;29.44;31.61;;
67304;Laerm;57660;51.436;5.978;2023-03-01T00:17:01;30.57;29.47;31.48;;
67304;Laerm;57660;51.436;5.978;2023-03-01T00:17:19;30.47;29.30;31.36;;
67304;Laerm;57660;51.436;5.978;2023-03-01T00:17:29;30.50;29.31;31.67;;
67304;Laerm;57660;51.436;5.978;2023-03-01T00:17:39;30.50;29.51;31.82;;
67304;Laerm;57660;51.436;5.978;2023-03-01T00:17:50;30.62;29.50;33.23;;
67304;Laerm;57660;51.436;5.978;2023-03-01T00:18:00;30.54;29.43;31.46;;
67304;Laerm;57660;51.436;5.978;2023-03-01T00:18:10;30.63;29.55;31.67;;
67304;Laerm;57660;51.436;5.978;2023-03-01T00:18:26;30.70;29.67;32.06;;
67304;Laerm;57660;51.436;5.978;2023-03-01T00:18:37;31.36;29.79;33.10;;
67304;Laerm;57660;51.436;5.978;2023-03-01T00:18:47;32.20;30.49;34.74;;
67304;Laerm;57660;51.436;5.978;2023-03-01T00:18:57;32.81;31.09;34.35;;
67304;Laerm;57660;51.436;5.978;2023-03-01T00:19:12;32.71;31.12;34.61;;
67304;Laerm;57660;51.436;5.978;2023-03-01T00:19:25;32.74;31.26;34.19;;
67304;Laerm;57660;51.436;5.978;2023-03-01T00:19:35;32.85;31.17;34.52;;
67304;Laerm;57660;51.436;5.978;2023-03-01T00:19:46;32.72;31.15;34.33;;
67304;Laerm;57660;51.436;5.978;2023-03-01T00:20:05;32.78;31.07;34.97;;
67304;Laerm;57660;51.436;5.978;2023-03-01T00:20:20;32.92;31.14;34.98;;
67304;Laerm;57660;51.436;5.978;2023-03-01T00:20:30;33.02;31.65;34.84;;
67304;Laerm;57660;51.436;5.978;2023-03-01T00:20:49;33.12;31.48;35.04;;
67304;Laerm;57660;51.436;5.978;2023-03-01T00:20:59;33.01;31.51;34.80;;
67304;Laerm;57660;51.436;5.978;2023-03-01T00:21:09;33.10;30.57;35.63;;
67304;Laerm;57660;51.436;5.978;2023-03-01T00:21:23;33.15;31.47;34.84;;
67304;Laerm;57660;51.436;5.978;2023-03-01T00:21:33;33.10;31.18;35.09;;
67304;Laerm;57660;51.436;5.978;2023-03-01T00:21:45;33.04;31.19;35.02;;
67304;Laerm;57660;51.436;5.978;2023-03-01T00:22:00;33.01;31.33;34.95;;
67304;Laerm;57660;51.436;5.978;2023-03-01T00:22:11;33.06;31.25;38.07;;
67304;Laerm;57660;51.436;5.978;2023-03-01T00:22:21;32.93;31.24;34.44;;
67304;Laerm;57660;51.436;5.978;2023-03-01T00:22:37;32.93;30.95;34.58;;
67304;Laerm;57660;51.436;5.978;2023-03-01T00:22:48;32.86;31.13;34.80;;
67304;Laerm;57660;51.436;5.978;2023-03-01T00:22:58;32.82;31.35;34.69;;
67304;Laerm;57660;51.436;5.978;2023-03-01T00:23:08;32.92;31.42;34.69;;
67304;Laerm;57660;51.436;5.978;2023-03-01T00:23:22;32.97;31.47;37.69;;
67304;Laerm;57660;51.436;5.978;2023-03-01T00:23:33;32.80;31.03;34.57;;
67304;Laerm;57660;51.436;5.978;2023-03-01T00:23:44;32.75;31.28;34.59;;
67304;Laerm;57660;51.436;5.978;2023-03-01T00:23:58;32.68;31.09;34.35;;
67304;Laerm;57660;51.436;5.978;2023-03-01T00:24:08;32.81;30.75;34.74;;
67304;Laerm;57660;51.436;5.978;2023-03-01T00:24:19;32.76;31.04;34.86;;
67304;Laerm;57660;51.436;5.978;2023-03-01T00:24:29;32.70;31.01;34.88;;
67304;Laerm;57660;51.436;5.978;2023-03-01T00:24:42;32.79;30.62;36.33;;
67304;Laerm;57660;51.436;5.978;2023-03-01T00:24:52;32.92;31.20;38.00;;
67304;Laerm;57660;51.436;5.978;2023-03-01T00:25:03;32.83;31.33;35.24;;
67304;Laerm;57660;51.436;5.978;2023-03-01T00:25:18;32.87;31.10;35.09;;
67304;Laerm;57660;51.436;5.978;2023-03-01T00:25:28;32.83;31.08;34.93;;
67304;Laerm;57660;51.436;5.978;2023-03-01T00:25:42;32.82;31.18;35.08;;
67304;Laerm;57660;51.436;5.978;2023-03-01T00:25:52;32.75;31.06;34.65;;
67304;Laerm;57660;51.436;5.978;2023-03-01T00:26:07;32.73;31.13;34.99;;
67304;Laerm;57660;51.436;5.978;2023-03-01T00:26:18;32.84;31.18;34.65;;
67304;Laerm;57660;51.436;5.978;2023-03-01T00:26:31;32.80;30.90;34.71;;
67304;Laerm;57660;51.436;5.978;2023-03-01T00:26:42;32.86;31.15;35.06;;
67304;Laerm;57660;51.436;5.978;2023-03-01T00:26:53;32.66;31.17;34.63;;
67304;Laerm;57660;51.436;5.978;2023-03-01T00:27:05;32.69;30.96;35.86;;
67304;Laerm;57660;51.436;5.978;2023-03-01T00:27:18;32.62;30.71;34.95;;
67304;Laerm;57660;51.436;5.978;2023-03-01T00:27:28;32.68;30.96;34.47;;
67304;Laerm;57660;51.436;5.978;2023-03-01T00:27:38;32.58;31.00;34.43;;
67304;Laerm;57660;51.436;5.978;2023-03-01T00:27:55;32.65;31.30;34.64;;
67304;Laerm;57660;51.436;5.978;2023-03-01T00:28:05;32.65;30.97;35.17;;
67304;Laerm;57660;51.436;5.978;2023-03-01T00:28:16;32.56;30.75;34.40;;
67304;Laerm;57660;51.436;5.978;2023-03-01T00:28:29;32.46;31.17;34.28;;
67304;Laerm;57660;51.436;5.978;2023-03-01T00:28:39;32.49;31.08;34.14;;
67304;Laerm;57660;51.436;5.978;2023-03-01T00:28:50;32.57;31.31;33.83;;
67304;Laerm;57660;51.436;5.978;2023-03-01T00:29:00;32.52;31.16;34.21;;
67304;Laerm;57660;51.436;5.978;2023-03-01T00:29:10;32.51;31.22;34.00;;
67304;Laerm;57660;51.436;5.978;2023-03-01T00:29:26;32.43;30.71;33.78;;
67304;Laerm;57660;51.436;5.978;2023-03-01T00:29:36;32.41;30.71;33.89;;
67304;Laerm;57660;51.436;5.978;2023-03-01T00:29:52;32.48;30.72;34.16;;
67304;Laerm;57660;51.436;5.978;2023-03-01T00:30:03;32.46;30.74;34.38;;
67304;Laerm;57660;51.436;5.978;2023-03-01T00:30:19;32.53;31.05;35.85;;
67304;Laerm;57660;51.436;5.978;2023-03-01T00:30:37;32.45;30.71;35.13;;
67304;Laerm;57660;51.436;5.978;2023-03-01T00:30:55;32.47;31.14;34.38;;
67304;Laerm;57660;51.436;5.978;2023-03-01T00:31:06;46.61;30.83;61.90;;
67304;Laerm;57660;51.436;5.978;2023-03-01T00:31:27;39.60;31.11;52.29;;
67304;Laerm;57660;51.436;5.978;2023-03-01T00:31:39;32.36;30.55;34.42;;
67304;Laerm;57660;51.436;5.978;2023-03-01T00:31:55;32.33;30.80;33.84;;
67304;Laerm;57660;51.436;5.978;2023-03-01T00:32:05;32.29;30.67;34.08;;
67304;Laerm;57660;51.436;5.978;2023-03-01T00:32:15;32.36;31.12;34.28;;
67304;Laerm;57660;51.436;5.978;2023-03-01T00:32:44;32.28;30.51;33.97;;
67304;Laerm;57660;51.436;5.978;2023-03-01T00:33:00;32.25;30.82;33.66;;
67304;Laerm;57660;51.436;5.978;2023-03-01T00:33:10;32.27;30.44;34.46;;
67304;Laerm;57660;51.436;5.978;2023-03-01T00:33:21;32.19;30.75;33.53;;
67304;Laerm;57660;51.436;5.978;2023-03-01T00:33:31;32.32;30.86;33.97;;
67304;Laerm;57660;51.436;5.978;2023-03-01T00:33:42;32.18;30.94;33.87;;
67304;Laerm;57660;51.436;5.978;2023-03-01T00:33:53;32.51;30.98;43.26;;
67304;Laerm;57660;51.436;5.978;2023-03-01T00:34:12;32.28;30.60;33.89;;
67304;Laerm;57660;51.436;5.978;2023-03-01T00:34:23;32.27;30.61;33.82;;
67304;Laerm;57660;51.436;5.978;2023-03-01T00:34:33;32.16;30.67;33.92;;
67304;Laerm;57660;51.436;5.978;2023-03-01T00:34:52;32.17;30.48;33.74;;
67304;Laerm;57660;51.436;5.978;2023-03-01T00:35:06;32.24;30.84;34.06;;
67304;Laerm;57660;51.436;5.978;2023-03-01T00:35:29;32.31;30.26;34.28;;
67304;Laerm;57660;51.436;5.978;2023-03-01T00:35:39;32.18;30.80;33.97;;
67304;Laerm;57660;51.436;5.978;2023-03-01T00:35:52;31.53;29.55;33.73;;
67304;Laerm;57660;51.436;5.978;2023-03-01T00:36:03;30.47;29.36;31.42;;
67304;Laerm;57660;51.436;5.978;2023-03-01T00:36:14;30.48;29.48;31.72;;
67304;Laerm;57660;51.436;5.978;2023-03-01T00:36:26;44.27;29.95;49.66;;
67304;Laerm;57660;51.436;5.978;2023-03-01T00:36:37;46.57;39.47;52.12;;
67304;Laerm;57660;51.436;5.978;2023-03-01T00:36:47;42.78;39.39;45.07;;
67304;Laerm;57660;51.436;5.978;2023-03-01T00:37:15;72.67;40.88;80.09;;
67304;Laerm;57660;51.436;5.978;2023-03-01T00:37:25;77.94;73.29;80.97;;
67304;Laerm;57660;51.436;5.978;2023-03-01T00:37:36;73.26;48.87;80.44;;
67304;Laerm;57660;51.436;5.978;2023-03-01T00:37:46;45.61;40.77;50.89;;
67304;Laerm;57660;51.436;5.978;2023-03-01T00:37:57;42.07;40.12;44.39;;
67304;Laerm;57660;51.436;5.978;2023-03-01T00:38:10;42.06;39.17;45.69;;
67304;Laerm;57660;51.436;5.978;2023-03-01T00:38:21;42.03;38.23;45.90;;
67304;Laerm;57660;51.436;5.978;2023-03-01T00:38:34;40.44;37.07;43.67;;
67304;Laerm;57660;51.436;5.978;2023-03-01T00:38:46;36.83;32.22;41.79;;
67304;Laerm;57660;51.436;5.978;2023-03-01T00:38:57;34.60;32.04;37.29;;
67304;Laerm;57660;51.436;5.978;2023-03-01T00:39:10;34.30;31.87;36.98;;
67304;Laerm;57660;51.436;5.978;2023-03-01T00:39:21;34.86;31.46;39.03;;
67304;Laerm;57660;51.436;5.978;2023-03-01T00:39:31;34.24;31.63;36.72;;
67304;Laerm;57660;51.436;5.978;2023-03-01T00:39:43;33.02;30.62;37.12;;
67304;Laerm;57660;51.436;5.978;2023-03-01T00:39:53;32.67;30.88;34.19;;
67304;Laerm;57660;51.436;5.978;2023-03-01T00:40:08;37.44;31.94;43.28;;
67304;Laerm;57660;51.436;5.978;2023-03-01T00:40:20;36.30;31.41;47.14;;
67304;Laerm;57660;51.436;5.978;2023-03-01T00:40:37;47.48;41.26;51.03;;
67304;Laerm;57660;51.436;5.978;2023-03-01T00:40:48;44.42;40.78;51.15;;
67304;Laerm;57660;51.436;5.978;2023-03-01T00:41:02;67.29;41.98;74.52;;
67304;Laerm;57660;51.436;5.978;2023-03-01T00:41:14;63.26;33.87;73.70;;
67304;Laerm;57660;51.436;5.978;2023-03-01T00:41:24;33.35;31.19;35.33;;
67304;Laerm;57660;51.436;5.978;2023-03-01T00:41:36;33.21;31.37;41.06;;
67304;Laerm;57660;51.436;5.978;2023-03-01T00:41:46;33.00;31.19;34.82;;
67304;Laerm;57660;51.436;5.978;2023-03-01T00:42:02;33.08;30.30;35.74;;
67304;Laerm;57660;51.436;5.978;2023-03-01T00:42:12;31.37;29.98;32.87;;
67304;Laerm;57660;51.436;5.978;2023-03-01T00:42:22;31.83;30.60;33.36;;
67304;Laerm;57660;51.436;5.978;2023-03-01T00:42:35;32.11;30.25;35.50;;
67304;Laerm;57660;51.436;5.978;2023-03-01T00:42:45;33.31;31.42;35.09;;
67304;Laerm;57660;51.436;5.978;2023-03-01T00:42:56;33.02;31.15;34.81;;
67304;Laerm;57660;51.436;5.978;2023-03-01T00:43:09;32.80;31.32;40.57;;
67304;Laerm;57660;51.436;5.978;2023-03-01T00:43:20;32.75;31.04;34.64;;
67304;Laerm;57660;51.436;5.978;2023-03-01T00:43:30;32.71;31.13;34.67;;
67304;Laerm;57660;51.436;5.978;2023-03-01T00:43:46;32.63;31.00;34.50;;
67304;Laerm;57660;51.436;5.978;2023-03-01T00:43:58;32.68;31.08;34.56;;
67304;Laerm;57660;51.436;5.978;2023-03-01T00:44:09;32.84;31.33;34.69;;
67304;Laerm;57660;51.436;5.978;2023-03-01T00:44:19;33.37;31.93;35.32;;
67304;Laerm;57660;51.436;5.978;2023-03-01T00:44:32;32.89;31.18;34.56;;
67304;Laerm;57660;51.436;5.978;2023-03-01T00:44:44;33.08;31.32;37.26;;
67304;Laerm;57660;51.436;5.978;2023-03-01T00:44:54;32.70;31.12;34.41;;
67304;Laerm;57660;51.436;5.978;2023-03-01T00:45:07;32.55;30.92;34.25;;
67304;Laerm;57660;51.436;5.978;2023-03-01T00:45:17;32.71;31.16;39.19;;
67304;Laerm;57660;51.436;5.978;2023-03-01T00:45:28;32.47;30.09;34.15;;
67304;Laerm;57660;51.436;5.978;2023-03-01T00:45:39;32.54;30.98;33.91;;
67304;Laerm;57660;51.436;5.978;2023-03-01T00:45:49;32.47;30.76;34.23;;
67304;Laerm;57660;51.436;5.978;2023-03-01T00:46:00;32.43;31.06;34.21;;
67304;Laerm;57660;51.436;5.978;2023-03-01T00:46:12;32.39;30.85;34.28;;
67304;Laerm;57660;51.436;5.978;2023-03-01T00:46:28;32.30;30.92;34.07;;
67304;Laerm;57660;51.436;5.978;2023-03-01T00:46:40;30.80;29.19;33.87;;
67304;Laerm;57660;51.436;5.978;2023-03-01T00:46:50;30.46;29.37;31.40;;
67304;Laerm;57660;51.436;5.978;2023-03-01T00:47:00;30.54;29.69;31.79;;
67304;Laerm;57660;51.436;5.978;2023-03-01T00:47:11;30.51;29.39;31.73;;
67304;Laerm;57660;51.436;5.978;2023-03-01T00:47:21;31.15;29.41;40.54;;
67304;Laerm;57660;51.436;5.978;2023-03-01T00:47:31;31.13;29.31;42.21;;
67304;Laerm;57660;51.436;5.978;2023-03-01T00:47:51;30.57;29.48;36.67;;
67304;Laerm;57660;51.436;5.978;2023-03-01T00:48:01;30.58;29.28;32.21;;
67304;Laerm;57660;51.436;5.978;2023-03-01T00:48:11;31.20;29.90;32.44;;
67304;Laerm;57660;51.436;5.978;2023-03-01T00:48:22;31.80;30.09;35.14;;
67304;Laerm;57660;51.436;5.978;2023-03-01T00:48:32;33.00;31.28;34.94;;
67304;Laerm;57660;51.436;5.978;2023-03-01T00:48:42;32.76;31.20;34.46;;
67304;Laerm;57660;51.436;5.978;2023-03-01T00:48:53;32.89;30.99;43.75;;
67304;Laerm;57660;51.436;5.978;2023-03-01T00:49:03;32.50;30.81;33.86;;
67304;Laerm;57660;51.436;5.978;2023-03-01T00:49:14;32.57;31.05;34.11;;
67304;Laerm;57660;51.436;5.978;2023-03-01T00:49:24;32.61;31.02;35.71;;
67304;Laerm;57660;51.436;5.978;2023-03-01T00:49:37;32.70;31.25;34.78;;
67304;Laerm;57660;51.436;5.978;2023-03-01T00:49:48;32.67;31.04;34.65;;
67304;Laerm;57660;51.436;5.978;2023-03-01T00:49:58;32.58;30.99;34.28;;
67304;Laerm;57660;51.436;5.978;2023-03-01T00:50:08;32.46;30.89;34.25;;
67304;Laerm;57660;51.436;5.978;2023-03-01T00:50:29;32.40;30.95;34.03;;
67304;Laerm;57660;51.436;5.978;2023-03-01T00:50:39;32.44;30.49;37.76;;
67304;Laerm;57660;51.436;5.978;2023-03-01T00:50:49;32.29;30.96;33.72;;
67304;Laerm;57660;51.436;5.978;2023-03-01T00:51:10;32.40;30.63;33.86;;
67304;Laerm;57660;51.436;5.978;2023-03-01T00:51:24;30.55;29.47;32.63;;
67304;Laerm;57660;51.436;5.978;2023-03-01T00:51:38;30.50;29.35;31.66;;
67304;Laerm;57660;51.436;5.978;2023-03-01T00:51:51;30.52;29.52;31.79;;
67304;Laerm;57660;51.436;5.978;2023-03-01T00:52:01;30.57;29.49;33.63;;
67304;Laerm;57660;51.436;5.978;2023-03-01T00:52:14;30.50;29.36;31.48;;
67304;Laerm;57660;51.436;5.978;2023-03-01T00:52:24;30.64;29.61;36.67;;
67304;Laerm;57660;51.436;5.978;2023-03-01T00:52:35;30.59;29.61;37.03;;
67304;Laerm;57660;51.436;5.978;2023-03-01T00:52:51;30.74;29.09;32.34;;
67304;Laerm;57660;51.436;5.978;2023-03-01T00:53:02;30.70;29.56;31.97;;
67304;Laerm;57660;51.436;5.978;2023-03-01T00:53:12;30.54;29.17;31.45;;
67304;Laerm;57660;51.436;5.978;2023-03-01T00:53:23;34.12;29.37;53.07;;
67304;Laerm;57660;51.436;5.978;2023-03-01T00:53:33;30.73;29.49;31.71;;
67304;Laerm;57660;51.436;5.978;2023-03-01T00:53:44;30.85;29.08;40.04;;
67304;Laerm;57660;51.436;5.978;2023-03-01T00:54:01;31.51;29.85;33.79;;
67304;Laerm;57660;51.436;5.978;2023-03-01T00:54:11;32.05;29.79;36.08;;
67304;Laerm;57660;51.436;5.978;2023-03-01T00:54:30;32.83;31.22;35.24;;
67304;Laerm;57660;51.436;5.978;2023-03-01T00:54:41;32.49;31.07;34.08;;
67304;Laerm;57660;51.436;5.978;2023-03-01T00:54:52;32.49;30.72;34.62;;
67304;Laerm;57660;51.436;5.978;2023-03-01T00:55:02;32.47;30.78;34.03;;
67304;Laerm;57660;51.436;5.978;2023-03-01T00:55:12;32.50;30.98;34.38;;
67304;Laerm;57660;51.436;5.978;2023-03-01T00:55:23;32.52;31.04;34.01;;
67304;Laerm;57660;51.436;5.978;2023-03-01T00:55:33;32.43;30.86;33.92;;
67304;Laerm;57660;51.436;5.978;2023-03-01T00:55:45;32.46;30.85;34.76;;
67304;Laerm;57660;51.436;5.978;2023-03-01T00:55:56;32.61;31.08;36.62;;
67304;Laerm;57660;51.436;5.978;2023-03-01T00:56:07;32.41;30.96;34.22;;
67304;Laerm;57660;51.436;5.978;2023-03-01T00:56:18;32.46;30.88;33.71;;
67304;Laerm;57660;51.436;5.978;2023-03-01T00:56:29;32.46;30.64;39.11;;
67304;Laerm;57660;51.436;5.978;2023-03-01T00:56:39;32.36;31.12;34.48;;
67304;Laerm;57660;51.436;5.978;2023-03-01T00:56:50;32.35;30.67;35.45;;
67304;Laerm;57660;51.436;5.978;2023-03-01T00:57:00;32.46;31.23;34.20;;
67304;Laerm;57660;51.436;5.978;2023-03-01T00:57:10;31.64;29.91;34.24;;
67304;Laerm;57660;51.436;5.978;2023-03-01T00:57:20;30.61;29.58;31.44;;
67304;Laerm;57660;51.436;5.978;2023-03-01T00:57:34;30.63;29.64;31.80;;
67304;Laerm;57660;51.436;5.978;2023-03-01T00:57:44;30.49;29.28;31.48;;
67304;Laerm;57660;51.436;5.978;2023-03-01T00:57:54;30.50;29.19;31.41;;
67304;Laerm;57660;51.436;5.978;2023-03-01T00:58:10;30.64;29.48;32.60;;
67304;Laerm;57660;51.436;5.978;2023-03-01T00:58:21;30.47;29.08;31.46;;
67304;Laerm;57660;51.436;5.978;2023-03-01T00:58:31;30.74;29.42;35.98;;
67304;Laerm;57660;51.436;5.978;2023-03-01T00:58:42;30.46;29.26;31.69;;
67304;Laerm;57660;51.436;5.978;2023-03-01T00:58:52;30.48;29.25;31.44;;
67304;Laerm;57660;51.436;5.978;2023-03-01T00:59:02;30.41;29.35;31.28;;
67304;Laerm;57660;51.436;5.978;2023-03-01T00:59:12;30.46;29.53;32.56;;
67304;Laerm;57660;51.436;5.978;2023-03-01T00:59:23;30.62;29.50;35.56;;
67304;Laerm;57660;51.436;5.978;2023-03-01T00:59:38;30.57;29.38;38.59;;
67304;Laerm;57660;51.436;5.978;2023-03-01T00:59:48;31.07;29.80;32.32;;
67304;Laerm;57660;51.436;5.978;2023-03-01T00:59:58;31.88;30.01;36.72;;
67304;Laerm;57660;51.436;5.978;2023-03-01T01:00:12;51.22;31.38;62.39;;
67304;Laerm;57660;51.436;5.978;2023-03-01T01:00:22;36.72;31.12;48.82;;
67304;Laerm;57660;51.436;5.978;2023-03-01T01:00:32;32.51;31.04;34.23;;
67304;Laerm;57660;51.436;5.978;2023-03-01T01:00:43;32.52;31.20;34.29;;
67304;Laerm;57660;51.436;5.978;2023-03-01T01:00:56;32.58;30.85;34.03;;
67304;Laerm;57660;51.436;5.978;2023-03-01T01:01:08;32.61;30.92;34.49;;
67304;Laerm;57660;51.436;5.978;2023-03-01T01:01:28;32.55;30.84;34.26;;
67304;Laerm;57660;51.436;5.978;2023-03-01T01:01:41;32.53;31.25;34.79;;
67304;Laerm;57660;51.436;5.978;2023-03-01T01:01:51;32.59;31.19;33.81;;
67304;Laerm;57660;51.436;5.978;2023-03-01T01:02:01;32.48;31.00;33.92;;
67304;Laerm;57660;51.436;5.978;2023-03-01T01:02:12;32.51;31.02;39.78;;
67304;Laerm;57660;51.436;5.978;2023-03-01T01:02:22;32.28;31.00;33.68;;
67304;Laerm;57660;51.436;5.978;2023-03-01T01:02:33;32.24;30.62;33.78;;
67304;Laerm;57660;51.436;5.978;2023-03-01T01:02:46;32.27;30.91;33.86;;
67304;Laerm;57660;51.436;5.978;2023-03-01T01:02:56;32.36;30.93;35.06;;
67304;Laerm;57660;51.436;5.978;2023-03-01T01:03:06;30.99;29.26;33.57;;
67304;Laerm;57660;51.436;5.978;2023-03-01T01:03:17;30.51;29.47;31.50;;
67304;Laerm;57660;51.436;5.978;2023-03-01T01:03:33;30.51;29.49;31.40;;
67304;Laerm;57660;51.436;5.978;2023-03-01T01:03:50;30.47;29.43;31.50;;
67304;Laerm;57660;51.436;5.978;2023-03-01T01:04:06;30.48;29.60;33.21;;
67304;Laerm;57660;51.436;5.978;2023-03-01T01:04:16;30.50;29.31;31.74;;
67304;Laerm;57660;51.436;5.978;2023-03-01T01:04:27;30.53;29.28;35.39;;
67304;Laerm;57660;51.436;5.978;2023-03-01T01:04:37;30.44;29.54;33.42;;
67304;Laerm;57660;51.436;5.978;2023-03-01T01:04:47;30.41;29.51;31.24;;
67304;Laerm;57660;51.436;5.978;2023-03-01T01:04:57;30.39;29.45;31.44;;
67304;Laerm;57660;51.436;5.978;2023-03-01T01:05:08;30.43;29.54;31.31;;
67304;Laerm;57660;51.436;5.978;2023-03-01T01:05:18;30.41;29.55;31.40;;
67304;Laerm;57660;51.436;5.978;2023-03-01T01:05:30;31.07;29.73;32.38;;
67304;Laerm;57660;51.436;5.978;2023-03-01T01:05:47;31.11;30.10;33.04;;
67304;Laerm;57660;51.436;5.978;2023-03-01T01:05:57;32.87;30.34;35.13;;
67304;Laerm;57660;51.436;5.978;2023-03-01T01:06:12;32.50;31.10;34.30;;
67304;Laerm;57660;51.436;5.978;2023-03-01T01:06:41;32.44;30.86;34.22;;
67304;Laerm;57660;51.436;5.978;2023-03-01T01:06:54;32.54;30.48;34.34;;
67304;Laerm;57660;51.436;5.978;2023-03-01T01:07:07;32.46;30.61;34.27;;
67304;Laerm;57660;51.436;5.978;2023-03-01T01:07:17;32.63;30.61;34.43;;
67304;Laerm;57660;51.436;5.978;2023-03-01T01:07:30;32.64;31.39;34.41;;
67304;Laerm;57660;51.436;5.978;2023-03-01T01:07:40;32.71;31.23;40.18;;
67304;Laerm;57660;51.436;5.978;2023-03-01T01:07:50;33.18;31.34;46.62;;